Time;durP1;ratioP1;P1;durP2;ratioP2;P2;SDS_P1;SDS_P2;PMS_P1;PMS_P2;Temp;Humidity;BMP_temperature;BMP_pressure;BME280_temperature;BME280_humidity;BME280_pressure;Samples;Min_cycle;Max_cycle;Signal;HPM_P1;HPM_P2
2022/07/27 00:01:12;;;;;;;;;;;;;;;20.50;46.01;100889.19;4999335;28;6791;-77
2022/07/27 00:03:39;;;;;;;;;;;;;;;20.50;46.14;100887.44;4984361;28;7225;-77
2022/07/27 00:06:05;;;;;;;;;;;;;;;20.50;46.23;100887.44;5028764;28;7089;-77
2022/07/27 00:08:31;;;;;;;;;;;;;;;20.47;46.11;100887.41;4992300;28;7122;-76
2022/07/27 00:10:56;;;;;;;;;;;;;;;20.44;46.03;100882.16;5020268;28;7203;-77
2022/07/27 00:13:22;;;;;;;;;;;;;;;20.43;46.04;100889.94;4997195;28;6852;-77
2022/07/27 00:15:48;;;;;;;;;;;;;;;20.39;46.15;100881.22;5016797;28;6946;-77
2022/07/27 00:18:14;;;;;;;;;;;;;;;20.39;46.44;100897.72;5017509;28;8043;-76
2022/07/27 00:20:40;;;;;;;;;;;;;;;20.38;45.94;100892.47;4999214;28;7307;-76
2022/07/27 00:23:06;;;;;;;;;;;;;;;20.38;45.85;100885.56;5030037;28;7103;-77
2022/07/27 00:25:32;;;;;;;;;;;;;;;20.38;45.86;100893.38;5028933;28;7081;-77
2022/07/27 00:27:58;;;;;;;;;;;;;;;20.38;45.92;100892.47;4995007;28;6792;-76
2022/07/27 00:30:25;;;;;;;;;;;;;;;20.38;45.83;100892.47;5007271;28;7191;-76
2022/07/27 00:32:51;;;;;;;;;;;;;;;20.39;46.14;100892.50;5032297;28;6796;-77
2022/07/27 00:35:17;;;;;;;;;;;;;;;20.41;46.45;100897.72;4993890;28;8703;-77
2022/07/27 00:37:42;;;;;;;;;;;;;;;20.42;46.35;100893.41;4994076;28;6800;-76
2022/07/27 00:40:09;;;;;;;;;;;;;;;20.41;46.48;100889.91;5002644;28;6820;-76
2022/07/27 00:42:35;;;;;;;;;;;;;;;20.40;46.27;100893.38;4995296;28;8208;-76
2022/07/27 00:45:01;;;;;;;;;;;;;;;20.38;46.01;100895.09;4996960;28;7289;-76
2022/07/27 00:47:27;;;;;;;;;;;;;;;20.34;46.32;100891.56;5001530;28;8010;-76
2022/07/27 00:49:53;;;;;;;;;;;;;;;20.30;46.28;100881.97;4982797;28;6935;-76
2022/07/27 00:52:21;;;;;;;;;;;;;;;20.29;46.42;100892.34;4997274;28;6960;-76
2022/07/27 00:54:47;;;;;;;;;;;;;;;20.29;46.58;100888.03;4995689;28;6787;-76
2022/07/27 00:57:14;;;;;;;;;;;;;;;20.29;46.38;100898.44;4996406;28;6950;-77
2022/07/27 00:59:40;;;;;;;;;;;;;;;20.30;47.15;100894.97;5013359;28;7370;-77
2022/07/27 01:02:08;;;;;;;;;;;;;;;20.32;46.91;100892.38;5025489;28;6991;-76
2022/07/27 01:04:34;;;;;;;;;;;;;;;20.31;46.50;100893.22;4997839;28;6781;-76
2022/07/27 01:07:03;;;;;;;;;;;;;;;20.31;46.47;100881.09;5010030;28;6970;-76
2022/07/27 01:12:16;;;;;;;;;;;;;;;20.29;46.82;100877.59;5004561;28;6792;-76
2022/07/27 01:14:42;;;;;;;;;;;;;;;20.24;46.59;100879.25;4991868;28;7269;-76
2022/07/27 01:17:08;;;;;;;;;;;;;;;20.20;46.69;100880.06;5029066;28;7428;-77
2022/07/27 01:19:35;;;;;;;;;;;;;;;20.18;46.87;100881.75;4996667;28;6955;-76
2022/07/27 01:22:05;;;;;;;;;;;;;;;20.16;46.97;100880.84;4999295;28;6803;-76
2022/07/27 01:24:31;;;;;;;;;;;;;;;20.12;46.77;100879.91;4998875;28;6796;-76
2022/07/27 01:27:01;;;;;;;;;;;;;;;20.08;47.06;100880.72;4994284;28;6938;-77
2022/07/27 01:29:28;;;;;;;;;;;;;;;20.03;46.98;100888.47;5025538;28;6981;-77
2022/07/27 01:31:54;;;;;;;;;;;;;;;19.96;47.65;100884.88;5028711;28;6960;-76
2022/07/27 01:34:21;;;;;;;;;;;;;;;19.91;47.47;100880.44;5029497;28;6855;-76
2022/07/27 01:36:47;;;;;;;;;;;;;;;19.83;47.70;100883.75;4995898;28;7733;-76
2022/07/27 01:39:15;;;;;;;;;;;;;;;19.74;47.04;100878.41;5003896;28;7249;-76
2022/07/27 01:41:41;;;;;;;;;;;;;;;19.65;47.57;100883.44;5013917;28;6992;-76
2022/07/27 01:44:07;;;;;;;;;;;;;;;19.54;48.07;100884.13;5016857;28;8228;-76
2022/07/27 01:46:32;;;;;;;;;;;;;;;19.46;48.30;100877.00;5010232;28;6879;-76
2022/07/27 01:48:58;;;;;;;;;;;;;;;19.37;48.02;100882.91;5011497;28;8282;-76
2022/07/27 01:51:24;;;;;;;;;;;;;;;19.29;48.48;100882.78;5001572;28;7369;-77
2022/07/27 01:53:49;;;;;;;;;;;;;;;19.21;48.61;100877.41;5022770;28;7077;-76
2022/07/27 01:56:15;;;;;;;;;;;;;;;19.12;48.37;100878.09;4995894;28;7908;-76
2022/07/27 01:58:42;;;;;;;;;;;;;;;19.04;49.07;100874.47;4991491;28;6856;-76
2022/07/27 02:01:08;;;;;;;;;;;;;;;18.95;49.35;100875.13;5022833;28;7197;-76
2022/07/27 02:03:35;;;;;;;;;;;;;;;18.88;49.49;100879.31;4994878;28;7024;-76
2022/07/27 02:06:00;;;;;;;;;;;;;;;18.79;49.85;100878.22;4998672;28;6855;-76
2022/07/27 02:08:26;;;;;;;;;;;;;;;18.72;50.03;100880.69;5011051;28;6764;-76
2022/07/27 02:13:37;;;;;;;;;;;;;;;18.56;50.07;100892.44;4996687;28;6800;-76
2022/07/27 02:16:03;;;;;;;;;;;;;;;18.50;49.98;100886.25;5006685;28;7146;-76
2022/07/27 02:18:29;;;;;;;;;;;;;;;18.42;50.60;100884.34;4995309;28;6783;-76
2022/07/27 02:20:55;;;;;;;;;;;;;;;18.37;50.22;100887.66;4997264;28;6784;-76
2022/07/27 02:23:21;;;;;;;;;;;;;;;18.30;50.55;100895.34;4991599;28;7773;-76
2022/07/27 02:25:47;;;;;;;;;;;;;;;18.23;51.21;100888.22;4996219;28;7334;-76
2022/07/27 02:28:12;;;;;;;;;;;;;;;18.18;51.09;100889.81;5023888;28;7132;-76
2022/07/27 02:30:38;;;;;;;;;;;;;;;18.10;50.75;100886.16;5009110;28;6784;-76
2022/07/27 02:33:05;;;;;;;;;;;;;;;18.04;51.27;100882.59;5026347;28;7022;-76
2022/07/27 02:35:30;;;;;;;;;;;;;;;17.98;51.50;100884.13;4992886;28;7275;-77
2022/07/27 02:37:56;;;;;;;;;;;;;;;17.93;51.92;100888.31;4996463;28;7162;-77
2022/07/27 02:40:22;;;;;;;;;;;;;;;17.84;51.96;100884.63;4999182;28;6775;-77
2022/07/27 02:42:48;;;;;;;;;;;;;;;17.79;52.67;100886.25;4999073;28;6792;-77
2022/07/27 02:45:15;;;;;;;;;;;;;;;17.74;52.37;100887.81;4997389;28;6784;-77
2022/07/27 02:47:42;;;;;;;;;;;;;;;17.70;52.77;100893.78;4997211;28;7249;-77
2022/07/27 02:50:08;;;;;;;;;;;;;;;17.65;52.57;100885.00;4971746;28;7205;-77
2022/07/27 02:52:36;;;;;;;;;;;;;;;17.62;52.95;100885.78;4976351;28;7709;-75
2022/07/27 02:55:03;;;;;;;;;;;;;;;17.58;53.08;100887.44;5010027;28;7019;-75
2022/07/27 02:57:29;;;;;;;;;;;;;;;17.55;53.69;100876.97;4990489;28;7055;-75
2022/07/27 02:59:55;;;;;;;;;;;;;;;17.53;53.51;100888.13;5009701;28;6796;-75
2022/07/27 03:02:20;;;;;;;;;;;;;;;17.48;52.95;100888.88;4975032;28;6792;-75
2022/07/27 03:04:46;;;;;;;;;;;;;;;17.45;53.32;100901.75;5006988;28;7226;-75
2022/07/27 03:07:12;;;;;;;;;;;;;;;17.41;53.33;100892.13;4979155;28;6852;-75
2022/07/27 03:09:37;;;;;;;;;;;;;;;17.37;53.18;100897.19;4978899;28;7149;-75
2022/07/27 03:12:03;;;;;;;;;;;;;;;17.34;53.55;100887.66;5029037;28;7231;-75
2022/07/27 03:14:28;;;;;;;;;;;;;;;17.30;53.51;100889.25;5013039;28;6803;-75
2022/07/27 03:16:54;;;;;;;;;;;;;;;17.26;53.89;100895.19;5010669;28;6768;-75
2022/07/27 03:19:20;;;;;;;;;;;;;;;17.24;53.86;100896.84;4984332;28;7025;-75
2022/07/27 03:21:45;;;;;;;;;;;;;;;17.22;53.72;100893.34;5027738;28;6944;-75
2022/07/27 03:24:11;;;;;;;;;;;;;;;17.21;53.74;100895.03;5009751;28;7568;-75
2022/07/27 03:26:37;;;;;;;;;;;;;;;17.20;53.69;100887.25;5005203;28;6775;-75
2022/07/27 03:29:03;;;;;;;;;;;;;;;17.18;53.78;100894.97;4973837;28;8941;-75
2022/07/27 03:31:29;;;;;;;;;;;;;;;17.16;54.00;100893.16;5006502;28;7312;-75
2022/07/27 03:33:54;;;;;;;;;;;;;;;17.13;54.03;100895.66;5002056;28;6961;-75
2022/07/27 03:36:20;;;;;;;;;;;;;;;17.11;54.29;100892.16;5032172;28;7124;-75
2022/07/27 03:38:46;;;;;;;;;;;;;;;17.08;54.44;100890.34;4995414;28;6974;-75
2022/07/27 03:41:11;;;;;;;;;;;;;;;17.05;54.08;100896.31;4981647;28;7206;-75
2022/07/27 03:43:37;;;;;;;;;;;;;;;17.02;54.28;100904.00;4986169;28;6832;-75
2022/07/27 03:46:03;;;;;;;;;;;;;;;17.00;54.34;100897.91;4980743;28;6776;-75
2022/07/27 03:48:28;;;;;;;;;;;;;;;16.98;54.58;100904.69;5018236;28;6768;-74
2022/07/27 03:50:54;;;;;;;;;;;;;;;16.98;54.59;100909.88;5016342;28;7360;-75
2022/07/27 03:53:20;;;;;;;;;;;;;;;16.97;54.89;100908.13;5027621;28;7087;-75
2022/07/27 03:55:49;;;;;;;;;;;;;;;16.96;54.67;100908.97;5014018;28;6823;-75
2022/07/27 03:58:16;;;;;;;;;;;;;;;16.93;54.64;100907.16;5015806;28;7160;-75
2022/07/27 04:00:44;;;;;;;;;;;;;;;16.92;54.67;100909.72;4982985;28;6871;-75
2022/07/27 04:03:09;;;;;;;;;;;;;;;16.88;54.98;100907.84;4982824;28;7848;-75
2022/07/27 04:05:35;;;;;;;;;;;;;;;16.85;55.36;100913.84;5011190;28;6844;-74
2022/07/27 04:08:01;;;;;;;;;;;;;;;16.81;55.38;100917.13;4980275;28;7063;-74
2022/07/27 04:10:26;;;;;;;;;;;;;;;16.80;55.43;100908.50;5010230;28;6836;-75
2022/07/27 04:12:52;;;;;;;;;;;;;;;16.82;55.79;100912.84;4980825;28;6787;-75
2022/07/27 04:15:19;;;;;;;;;;;;;;;16.83;55.45;100917.19;4981430;28;7270;-74
2022/07/27 04:17:44;;;;;;;;;;;;;;;16.82;55.42;100915.44;4977695;28;6931;-74
2022/07/27 04:20:11;;;;;;;;;;;;;;;16.82;55.75;100918.03;5009410;28;6784;-74
2022/07/27 04:22:36;;;;;;;;;;;;;;;16.82;55.48;100918.91;4981961;28;7158;-75
2022/07/27 04:25:03;;;;;;;;;;;;;;;16.82;55.75;100929.25;5016746;28;6768;-75
2022/07/27 04:27:28;;;;;;;;;;;;;;;16.82;55.50;100928.38;5016570;28;6796;-75
2022/07/27 04:29:54;;;;;;;;;;;;;;;16.86;56.08;100933.72;4987816;28;6776;-74
2022/07/27 04:32:20;;;;;;;;;;;;;;;16.97;56.75;100930.56;5013730;28;6787;-75
2022/07/27 04:34:46;;;;;;;;;;;;;;;17.16;57.38;100929.41;4983158;28;6844;-75
2022/07/27 04:37:11;;;;;;;;;;;;;;;17.38;57.26;100925.75;5015477;28;6947;-75
2022/07/27 04:39:37;;;;;;;;;;;;;;;17.66;57.17;100923.91;5011025;28;6779;-74
2022/07/27 04:42:03;;;;;;;;;;;;;;;17.94;57.04;100927.25;5016002;28;6764;-75
2022/07/27 04:44:28;;;;;;;;;;;;;;;18.24;57.14;100925.41;4983318;28;6776;-75
2022/07/27 04:46:54;;;;;;;;;;;;;;;18.49;56.53;100929.47;5010976;28;6994;-75
2022/07/27 04:49:20;;;;;;;;;;;;;;;18.76;55.88;100925.78;5014341;28;6899;-75
2022/07/27 04:51:45;;;;;;;;;;;;;;;19.03;55.89;100923.81;5015743;28;6819;-75
2022/07/27 04:54:12;;;;;;;;;;;;;;;19.29;55.20;100930.41;4996179;28;7400;-75
2022/07/27 04:56:37;;;;;;;;;;;;;;;19.52;54.20;100926.50;5013367;28;8059;-76
2022/07/27 04:59:03;;;;;;;;;;;;;;;19.75;53.52;100926.06;5017422;28;6844;-76
2022/07/27 05:01:29;;;;;;;;;;;;;;;19.96;53.15;100923.91;5002634;28;6957;-76
2022/07/27 05:03:54;;;;;;;;;;;;;;;20.20;52.24;100927.75;5015079;28;7380;-76
2022/07/27 05:06:20;;;;;;;;;;;;;;;20.42;52.17;100919.44;5017330;28;7296;-76
2022/07/27 05:08:46;;;;;;;;;;;;;;;20.67;52.64;100928.50;4984332;28;7118;-76
2022/07/27 05:11:11;;;;;;;;;;;;;;;20.97;52.17;100931.56;5016812;28;7836;-76
2022/07/27 05:13:40;;;;;;;;;;;;;;;21.27;51.50;100927.59;4985410;28;6818;-76
2022/07/27 05:16:08;;;;;;;;;;;;;;;21.53;50.93;100930.50;5013937;28;6808;-76
2022/07/27 05:18:34;;;;;;;;;;;;;;;21.74;49.94;100932.50;5018348;28;6851;-76
2022/07/27 05:21:00;;;;;;;;;;;;;;;21.95;49.26;100938.78;5013709;28;6839;-76
2022/07/27 05:23:26;;;;;;;;;;;;;;;22.13;49.31;100937.19;5028089;28;7113;-76
2022/07/27 05:25:52;;;;;;;;;;;;;;;22.34;49.00;100937.38;5014440;28;6855;-76
2022/07/27 05:28:17;;;;;;;;;;;;;;;22.52;47.51;100934.91;4978507;28;6768;-76
2022/07/27 05:30:43;;;;;;;;;;;;;;;22.59;46.23;100936.69;5009769;28;7252;-76
2022/07/27 05:33:09;;;;;;;;;;;;;;;22.58;45.80;100933.19;5032697;28;7034;-76
2022/07/27 05:35:35;;;;;;;;;;;;;;;22.60;45.36;100939.34;5011801;28;7124;-76
2022/07/27 05:38:02;;;;;;;;;;;;;;;22.56;45.08;100937.53;4981248;28;7162;-76
2022/07/27 05:40:28;;;;;;;;;;;;;;;22.46;44.39;100948.75;5030330;28;7017;-76
2022/07/27 05:42:54;;;;;;;;;;;;;;;22.36;44.83;100950.44;5001184;28;6982;-76
2022/07/27 05:45:19;;;;;;;;;;;;;;;22.32;45.21;100952.16;4992240;28;6980;-76
2022/07/27 05:47:45;;;;;;;;;;;;;;;22.36;45.32;100947.84;5014138;28;6932;-76
2022/07/27 05:50:11;;;;;;;;;;;;;;;22.41;45.92;100953.09;5012989;28;7128;-76
2022/07/27 05:52:37;;;;;;;;;;;;;;;22.53;45.48;100957.53;5010565;28;6947;-76
2022/07/27 05:55:04;;;;;;;;;;;;;;;22.55;45.04;100951.47;5012508;28;7178;-76
2022/07/27 05:57:30;;;;;;;;;;;;;;;22.47;44.58;100956.63;5011259;28;7137;-76
2022/07/27 05:59:57;;;;;;;;;;;;;;;22.33;44.18;100956.50;4982612;28;6784;-76
2022/07/27 06:02:24;;;;;;;;;;;;;;;22.10;43.90;100952.81;4985162;28;7936;-76
2022/07/27 06:04:49;;;;;;;;;;;;;;;21.83;43.82;100954.31;4978968;28;6792;-76
2022/07/27 06:09:59;;;;;;;;;;;;;;;21.33;44.67;100961.53;4978778;28;6958;-76
2022/07/27 06:12:26;;;;;;;;;;;;;;;21.13;45.06;100966.50;5009558;28;6780;-77
2022/07/27 06:14:52;;;;;;;;;;;;;;;20.95;45.62;100962.78;5014639;28;6848;-76
2022/07/27 06:17:18;;;;;;;;;;;;;;;20.77;46.28;100964.22;5001443;28;6946;-76
2022/07/27 06:19:44;;;;;;;;;;;;;;;20.66;46.06;100969.25;5013487;28;6932;-76
2022/07/27 06:22:09;;;;;;;;;;;;;;;20.55;46.03;100965.63;5012988;28;7077;-76
2022/07/27 06:24:35;;;;;;;;;;;;;;;20.44;46.58;100961.97;4979681;28;7006;-76
2022/07/27 06:27:01;;;;;;;;;;;;;;;20.34;46.53;100959.22;4981106;28;6987;-76
2022/07/27 06:29:27;;;;;;;;;;;;;;;20.30;46.95;100969.56;4999485;28;7395;-77
2022/07/27 06:31:53;;;;;;;;;;;;;;;20.26;47.13;100958.22;4978875;28;6807;-77
2022/07/27 06:34:18;;;;;;;;;;;;;;;20.24;47.00;100959.94;5011386;28;7373;-77
2022/07/27 06:36:44;;;;;;;;;;;;;;;20.25;47.66;100969.47;5012689;28;6776;-77
2022/07/27 06:39:11;;;;;;;;;;;;;;;20.26;47.60;100963.41;5027318;28;7018;-77
2022/07/27 06:41:37;;;;;;;;;;;;;;;20.31;47.53;100960.91;5017887;28;7085;-77
2022/07/27 06:44:03;;;;;;;;;;;;;;;20.38;47.56;100965.38;5015731;28;6780;-77
2022/07/27 06:46:28;;;;;;;;;;;;;;;20.43;47.24;100962.84;5013643;28;6847;-77
2022/07/27 06:48:55;;;;;;;;;;;;;;;20.48;47.27;100962.06;5000433;28;7097;-77
2022/07/27 06:51:22;;;;;;;;;;;;;;;20.50;47.16;100962.09;4982643;28;6796;-76
2022/07/27 06:53:51;;;;;;;;;;;;;;;20.52;46.86;100958.66;4999234;28;7071;-76
2022/07/27 06:56:19;;;;;;;;;;;;;;;20.56;47.13;100964.78;5028297;28;7257;-76
2022/07/27 06:58:44;;;;;;;;;;;;;;;20.61;46.79;100967.44;4977890;28;7158;-76
2022/07/27 07:01:10;;;;;;;;;;;;;;;20.62;46.68;100962.28;5010647;28;6925;-76
2022/07/27 07:03:36;;;;;;;;;;;;;;;20.70;46.47;100971.94;5009467;28;7241;-76
2022/07/27 07:06:01;;;;;;;;;;;;;;;20.77;46.64;100959.03;5011706;28;6991;-76
2022/07/27 07:08:27;;;;;;;;;;;;;;;20.85;46.50;100961.75;5011301;28;7128;-76
2022/07/27 07:10:53;;;;;;;;;;;;;;;20.92;46.55;100961.00;5012794;28;7027;-76
2022/07/27 07:13:19;;;;;;;;;;;;;;;21.04;46.21;100964.63;5012735;28;7371;-75
2022/07/27 07:15:45;;;;;;;;;;;;;;;21.19;45.86;100966.56;5010593;28;6852;-75
2022/07/27 07:18:11;;;;;;;;;;;;;;;21.36;45.97;100964.19;5012126;28;6788;-75
2022/07/27 07:20:38;;;;;;;;;;;;;;;21.57;45.46;100967.91;5013506;28;6787;-75
2022/07/27 07:23:05;;;;;;;;;;;;;;;21.76;45.19;100969.91;4993946;28;7188;-76
2022/07/27 07:25:33;;;;;;;;;;;;;;;21.89;44.74;100970.00;5010444;28;6796;-76
2022/07/27 07:27:59;;;;;;;;;;;;;;;21.95;44.42;100971.81;4995053;28;6986;-76
2022/07/27 07:30:26;;;;;;;;;;;;;;;22.11;44.14;100978.03;4981554;28;6800;-76
2022/07/27 07:32:51;;;;;;;;;;;;;;;22.32;43.57;100965.22;4979118;28;6804;-75
2022/07/27 07:35:17;;;;;;;;;;;;;;;22.48;43.25;100974.03;5026947;28;7114;-76
2022/07/27 07:37:43;;;;;;;;;;;;;;;22.56;42.54;100975.88;5006973;28;7091;-76
2022/07/27 07:40:09;;;;;;;;;;;;;;;22.65;42.20;100967.22;5013560;28;7297;-76
2022/07/27 07:43:01;;;;;;;;;;;;;;;22.68;41.88;100972.44;5011390;28;6784;-75
2022/07/27 07:45:29;;;;;;;;;;;;;;;22.67;41.81;100970.69;4977531;28;6812;-76
2022/07/27 07:47:56;;;;;;;;;;;;;;;22.71;41.00;100980.31;4980089;28;6983;-76
2022/07/27 07:50:23;;;;;;;;;;;;;;;22.74;40.90;100973.38;5012716;28;7122;-76
2022/07/27 07:52:51;;;;;;;;;;;;;;;22.77;40.69;100971.66;4982159;28;6800;-76
2022/07/27 07:55:26;;;;;;;;;;;;;;;22.71;40.44;100973.34;5006960;28;7109;-76
2022/07/27 07:57:52;;;;;;;;;;;;;;;22.65;39.84;100981.16;4977341;28;7216;-76
2022/07/27 08:00:20;;;;;;;;;;;;;;;22.55;39.88;100981.94;4993946;28;7105;-76
2022/07/27 08:02:49;;;;;;;;;;;;;;;22.42;39.94;100986.19;4999852;28;7331;-76
2022/07/27 08:05:16;;;;;;;;;;;;;;;22.27;40.25;100985.16;4976232;28;6962;-76
2022/07/27 08:07:43;;;;;;;;;;;;;;;22.15;40.17;100982.44;5023361;28;6978;-76
2022/07/27 08:10:12;;;;;;;;;;;;;;;22.02;39.87;100981.44;5009955;28;6796;-76
2022/07/27 08:12:44;;;;;;;;;;;;;;;21.94;40.42;100981.38;5011759;28;7925;-76
2022/07/27 08:15:12;;;;;;;;;;;;;;;21.91;40.71;100986.56;4976752;28;6980;-76
2022/07/27 08:17:38;;;;;;;;;;;;;;;21.89;40.83;100988.28;4984920;28;6858;-76
2022/07/27 08:20:05;;;;;;;;;;;;;;;21.92;41.07;100991.78;5012783;28;6859;-76
2022/07/27 08:22:30;;;;;;;;;;;;;;;22.00;41.45;100989.25;5028196;28;7299;-75
2022/07/27 08:24:58;;;;;;;;;;;;;;;22.12;41.17;100988.50;4995867;28;7137;-75
2022/07/27 08:27:24;;;;;;;;;;;;;;;22.26;40.63;100993.88;5015281;28;7201;-75
2022/07/27 08:29:50;;;;;;;;;;;;;;;22.40;40.80;101000.94;5015024;28;6858;-75
2022/07/27 08:32:15;;;;;;;;;;;;;;;22.56;40.01;100989.78;5028522;28;7232;-76
2022/07/27 08:34:41;;;;;;;;;;;;;;;22.71;40.24;100988.16;4984552;28;7040;-76
2022/07/27 08:37:07;;;;;;;;;;;;;;;22.84;39.75;100983.88;4980393;28;6779;-76
2022/07/27 08:39:33;;;;;;;;;;;;;;;22.95;39.55;100977.00;4982630;28;6874;-76
2022/07/27 08:42:03;;;;;;;;;;;;;;;23.07;39.11;100976.16;5018371;28;6787;-76
2022/07/27 08:44:30;;;;;;;;;;;;;;;23.16;38.45;100970.13;4986477;28;6999;-76
2022/07/27 08:46:56;;;;;;;;;;;;;;;23.24;38.61;100976.28;5013403;28;6892;-76
2022/07/27 08:49:23;;;;;;;;;;;;;;;23.36;38.54;100975.47;5011434;28;6796;-75
2022/07/27 08:51:49;;;;;;;;;;;;;;;23.57;37.93;100974.66;5009617;28;6788;-75
2022/07/27 08:54:15;;;;;;;;;;;;;;;23.94;37.86;100970.41;4980005;28;7031;-75
2022/07/27 08:56:42;;;;;;;;;;;;;;;24.45;37.55;100966.97;5017592;28;7398;-76
2022/07/27 08:59:08;;;;;;;;;;;;;;;24.97;36.73;100966.03;5015474;28;6930;-76
2022/07/27 09:01:38;;;;;;;;;;;;;;;25.57;35.94;100967.56;4979341;28;6966;-76
2022/07/27 09:04:04;;;;;;;;;;;;;;;25.98;34.79;100967.28;4979322;28;7822;-76
2022/07/27 09:06:44;;;;;;;;;;;;;;;26.39;35.00;100974.03;4978459;28;7185;-75
2022/07/27 09:09:12;;;;;;;;;;;;;;;26.88;33.60;100961.31;5009801;28;7353;-76
2022/07/27 09:11:38;;;;;;;;;;;;;;;26.93;33.56;100967.38;5000382;28;6826;-76
2022/07/27 09:14:07;;;;;;;;;;;;;;;26.69;33.08;100969.34;4978497;28;6784;-76
2022/07/27 09:16:34;;;;;;;;;;;;;;;26.39;33.40;100974.03;5027547;28;7160;-76
2022/07/27 09:19:09;;;;;;;;;;;;;;;26.10;33.26;100980.34;5011760;28;7207;-76
2022/07/27 09:21:36;;;;;;;;;;;;;;;25.89;33.55;100977.00;4984176;28;6946;-76
2022/07/27 09:24:14;;;;;;;;;;;;;;;25.68;34.27;100979.75;4979699;28;6800;-76
2022/07/27 09:26:41;;;;;;;;;;;;;;;25.48;33.74;100976.31;4979623;28;6800;-76
2022/07/27 09:29:14;;;;;;;;;;;;;;;25.29;34.17;100974.66;4992521;28;7004;-76
2022/07/27 09:31:47;;;;;;;;;;;;;;;25.19;34.11;100981.69;5011495;28;6792;-76
2022/07/27 09:34:27;;;;;;;;;;;;;;;25.16;34.12;100976.47;5011020;28;7027;-77
2022/07/27 09:36:56;;;;;;;;;;;;;;;25.18;34.39;100972.06;5013998;28;6792;-76
2022/07/27 09:39:26;;;;;;;;;;;;;;;25.59;34.33;100978.94;4983896;28;6816;-76
2022/07/27 09:41:54;;;;;;;;;;;;;;;26.54;33.09;100980.00;4963617;28;6985;-76
2022/07/27 09:44:35;;;;;;;;;;;;;;;27.33;31.84;100963.41;5006655;28;7869;-76
2022/07/27 09:47:29;;;;;;;;;;;;;;;27.55;31.27;100969.28;4981929;28;6834;-77
2022/07/27 09:50:16;;;;;;;;;;;;;;;27.91;31.50;100970.50;4999731;28;6989;-77
2022/07/27 09:52:43;;;;;;;;;;;;;;;28.18;30.04;100976.22;4979373;28;6816;-76
2022/07/27 09:55:09;;;;;;;;;;;;;;;27.97;29.80;100973.94;4981680;28;7881;-75
2022/07/27 09:57:56;;;;;;;;;;;;;;;27.53;30.54;100971.03;4991111;28;7346;-75
2022/07/27 10:00:24;;;;;;;;;;;;;;;27.12;30.97;100969.78;4969153;28;8630;-76
2022/07/27 10:02:51;;;;;;;;;;;;;;;26.74;31.05;100982.47;5005678;28;8152;-75
2022/07/27 10:05:20;;;;;;;;;;;;;;;26.45;31.25;100973.94;5011578;28;6920;-75
2022/07/27 10:07:47;;;;;;;;;;;;;;;26.25;31.53;100981.13;5007045;28;6803;-75
2022/07/27 10:10:14;;;;;;;;;;;;;;;26.09;31.60;100977.72;4982614;28;6788;-75
2022/07/27 10:12:44;;;;;;;;;;;;;;;26.02;32.16;100984.78;4980508;28;6788;-75
2022/07/27 10:15:11;;;;;;;;;;;;;;;26.00;32.70;100982.16;5017072;28;7174;-75
2022/07/27 10:17:40;;;;;;;;;;;;;;;26.02;32.34;100972.50;5028442;28;6957;-75
2022/07/27 10:20:09;;;;;;;;;;;;;;;26.07;32.61;100980.34;5010997;28;6884;-74
2022/07/27 10:22:58;;;;;;;;;;;;;;;26.15;32.40;100973.28;4975606;28;6840;-74
2022/07/27 10:25:28;;;;;;;;;;;;;;;26.16;32.02;100977.66;4976720;28;6820;-74
2022/07/27 10:28:16;;;;;;;;;;;;;;;26.24;32.41;100979.41;5011950;28;7186;-74
2022/07/27 10:30:43;;;;;;;;;;;;;;;26.34;32.28;100971.44;5012145;28;6995;-74
2022/07/27 10:33:36;;;;;;;;;;;;;;;26.60;33.05;100977.34;5011062;28;7242;-75
2022/07/27 10:36:03;;;;;;;;;;;;;;;26.97;32.91;100976.09;4999741;28;7071;-74
2022/07/27 10:38:55;;;;;;;;;;;;;;;27.38;32.45;100968.59;4991933;28;6872;-74
2022/07/27 10:41:36;;;;;;;;;;;;;;;27.86;31.29;100967.94;4982042;28;7184;-74
2022/07/27 10:44:28;;;;;;;;;;;;;;;28.16;30.88;100964.84;4985284;28;7279;-75
2022/07/27 10:46:58;;;;;;;;;;;;;;;28.25;30.53;100960.34;5009038;28;7870;-75
2022/07/27 10:49:30;;;;;;;;;;;;;;;28.26;30.69;100964.72;4998436;28;6996;-75
2022/07/27 10:51:58;;;;;;;;;;;;;;;28.19;29.72;100963.06;4981348;28;6829;-75
2022/07/27 10:54:35;;;;;;;;;;;;;;;27.96;29.23;100964.31;5029210;28;6980;-74
2022/07/27 10:57:05;;;;;;;;;;;;;;;27.65;29.84;100959.47;5007472;28;7409;-75
2022/07/27 10:59:43;;;;;;;;;;;;;;;27.44;29.72;100953.59;5006943;28;7383;-74
2022/07/27 11:02:12;;;;;;;;;;;;;;;27.35;30.49;100950.22;4977510;28;6812;-74
2022/07/27 11:04:51;;;;;;;;;;;;;;;27.51;30.83;100948.25;4964460;28;6978;-75
2022/07/27 11:07:21;;;;;;;;;;;;;;;27.81;30.56;100946.09;4975085;28;8225;-76
2022/07/27 11:09:49;;;;;;;;;;;;;;;28.09;29.69;100943.88;4981450;28;6956;-75
2022/07/27 11:12:17;;;;;;;;;;;;;;;28.42;29.71;100936.31;4979236;28;6912;-75
2022/07/27 11:14:53;;;;;;;;;;;;;;;28.65;28.35;100934.16;4978422;28;6832;-75
2022/07/27 11:17:24;;;;;;;;;;;;;;;28.70;28.26;100940.19;4973701;28;7204;-75
2022/07/27 11:19:59;;;;;;;;;;;;;;;28.73;28.42;100937.53;5008976;28;7169;-75
2022/07/27 11:22:38;;;;;;;;;;;;;;;28.62;28.20;100937.72;4976046;28;6788;-75
2022/07/27 11:25:07;;;;;;;;;;;;;;;28.33;28.02;100941.75;4981262;28;7291;-75
2022/07/27 11:27:48;;;;;;;;;;;;;;;28.41;28.71;100928.44;4995499;28;7069;-75
2022/07/27 11:30:26;;;;;;;;;;;;;;;29.31;28.14;100931.09;5008630;28;7825;-75
2022/07/27 11:32:54;;;;;;;;;;;;;;;30.56;28.15;100927.22;5010821;28;6788;-75
2022/07/27 11:35:19;;;;;;;;;;;;;;;31.99;26.62;100915.03;5010102;28;7217;-75
2022/07/27 11:38:01;;;;;;;;;;;;;;;33.29;24.70;100911.25;4982668;28;6939;-75
2022/07/27 11:40:27;;;;;;;;;;;;;;;33.51;23.01;100913.09;4981554;28;7748;-75
2022/07/27 11:42:52;;;;;;;;;;;;;;;32.80;23.18;100912.19;4975880;28;6812;-76
2022/07/27 11:45:28;;;;;;;;;;;;;;;31.60;23.22;100912.75;4978003;28;7582;-75
2022/07/27 11:47:58;;;;;;;;;;;;;;;30.52;23.80;100907.06;4961711;28;6849;-75
2022/07/27 11:50:24;;;;;;;;;;;;;;;29.64;24.19;100918.03;4980300;28;6917;-75
2022/07/27 11:52:56;;;;;;;;;;;;;;;28.98;25.06;100900.13;5008516;28;6783;-75
2022/07/27 11:55:22;;;;;;;;;;;;;;;28.58;25.60;100904.38;4983659;28;6811;-75
2022/07/27 11:57:48;;;;;;;;;;;;;;;28.37;26.11;100906.53;4981900;28;6973;-75
2022/07/27 12:00:13;;;;;;;;;;;;;;;28.30;26.55;100910.19;5012706;28;7283;-75
2022/07/27 12:02:50;;;;;;;;;;;;;;;28.51;26.64;100898.38;4982028;28;8082;-75
2022/07/27 12:05:15;;;;;;;;;;;;;;;29.04;26.45;100896.47;4978675;28;6799;-75
2022/07/27 12:07:43;;;;;;;;;;;;;;;29.54;25.90;100892.75;5024234;28;7265;-75
2022/07/27 12:10:10;;;;;;;;;;;;;;;30.12;25.63;100895.78;4994540;28;7212;-75
2022/07/27 12:12:36;;;;;;;;;;;;;;;31.02;25.37;100879.22;5016354;28;7038;-75
2022/07/27 12:15:16;;;;;;;;;;;;;;;32.00;24.77;100890.25;4983857;28;7014;-75
2022/07/27 12:17:43;;;;;;;;;;;;;;;32.82;23.25;100881.16;4981036;28;7173;-76
2022/07/27 12:20:19;;;;;;;;;;;;;;;33.05;22.90;100868.84;4980387;28;6824;-76
2022/07/27 12:22:50;;;;;;;;;;;;;;;32.68;22.84;100888.78;4977983;28;6819;-76
2022/07/27 12:25:16;;;;;;;;;;;;;;;31.69;23.38;100901.88;5013756;28;7770;-75
2022/07/27 12:28:11;;;;;;;;;;;;;;;30.55;23.66;100903.44;4973035;28;7163;-75
2022/07/27 12:30:50;;;;;;;;;;;;;;;29.52;24.83;100901.59;4978052;28;6877;-74
2022/07/27 12:33:27;;;;;;;;;;;;;;;28.74;25.50;100901.47;4980899;28;6970;-75
2022/07/27 12:35:55;;;;;;;;;;;;;;;28.19;26.30;100902.47;4983548;28;6957;-74
2022/07/27 12:38:21;;;;;;;;;;;;;;;27.80;26.71;100912.75;5014095;28;6792;-74
2022/07/27 12:40:55;;;;;;;;;;;;;;;27.50;27.04;100915.78;5016502;28;6791;-75
2022/07/27 12:43:25;;;;;;;;;;;;;;;27.20;27.11;100915.31;4986200;28;6784;-75
2022/07/27 12:45:53;;;;;;;;;;;;;;;26.93;27.43;100912.16;4995322;28;7170;-75
2022/07/27 12:48:26;;;;;;;;;;;;;;;26.71;27.79;100912.38;4983655;28;6788;-77
2022/07/27 12:51:06;;;;;;;;;;;;;;;26.66;28.03;100918.56;4987642;28;7175;-75
2022/07/27 12:53:35;;;;;;;;;;;;;;;26.66;28.37;100911.56;4981720;28;6874;-76
2022/07/27 12:56:07;;;;;;;;;;;;;;;26.72;28.67;100914.09;5014721;28;7005;-76
2022/07/27 12:58:33;;;;;;;;;;;;;;;26.88;28.37;100913.97;4978236;28;6820;-76
2022/07/27 13:00:59;;;;;;;;;;;;;;;27.12;28.02;100909.28;4983544;28;7015;-77